Time;durP1;ratioP1;P1;durP2;ratioP2;P2;SDS_P1;SDS_P2;PMS_P1;PMS_P2;Temp;Humidity;BMP_temperature;BMP_pressure;BME280_temperature;BME280_humidity;BME280_pressure;Samples;Min_cycle;Max_cycle;Signal;HPM_P1;HPM_P2
2023/08/20 00:01:55;;;;;;;3.87;3.47;;;;;;;26.40;65.09;99121.13;5113875;27;42337;-73
2023/08/20 00:04:27;;;;;;;3.97;3.60;;;;;;;26.35;65.53;99116.25;5111501;27;39691;-72
2023/08/20 00:06:57;;;;;;;3.83;3.40;;;;;;;26.30;65.59;99109.72;5096880;27;40842;-72
2023/08/20 00:09:26;;;;;;;3.80;3.50;;;;;;;26.27;65.65;99112.78;5113921;27;41952;-72
2023/08/20 00:11:54;;;;;;;4.40;3.70;;;;;;;26.24;65.73;99115.88;5113942;27;42212;-73
2023/08/20 00:14:56;;;;;;;4.13;3.73;;;;;;;26.20;65.88;99115.44;5132678;27;39982;-72
2023/08/20 00:17:26;;;;;;;4.53;3.80;;;;;;;26.08;65.83;99106.06;5130615;27;42543;-73
2023/08/20 00:19:55;;;;;;;3.80;3.40;;;;;;;26.13;65.64;99123.47;5109753;27;43646;-73
2023/08/20 00:22:25;;;;;;;3.60;3.30;;;;;;;26.11;65.36;99125.53;5112727;27;42105;-72
2023/08/20 00:24:54;;;;;;;3.43;3.13;;;;;;;26.08;65.55;99134.06;5095275;27;39174;-72
2023/08/20 00:27:22;;;;;;;3.83;3.23;;;;;;;26.04;65.58;99135.47;5131592;27;42229;-72
2023/08/20 00:29:50;;;;;;;3.67;3.37;;;;;;;25.99;66.08;99137.88;5095793;27;41655;-72
2023/08/20 00:32:17;;;;;;;3.27;2.97;;;;;;;25.94;66.40;99132.19;5113021;27;42998;-73
2023/08/20 00:34:45;;;;;;;3.50;3.17;;;;;;;25.89;66.13;99145.47;5096028;27;40013;-73
2023/08/20 00:37:13;;;;;;;3.60;3.30;;;;;;;25.86;66.55;99143.13;5112977;27;41785;-72
2023/08/20 00:39:42;;;;;;;3.20;2.90;;;;;;;25.81;66.69;99134.72;5095523;27;41743;-72
2023/08/20 00:42:09;;;;;;;4.03;3.60;;;;;;;25.80;66.94;99135.75;5112736;27;42099;-72
2023/08/20 00:44:37;;;;;;;4.77;3.70;;;;;;;25.77;67.03;99133.41;5112994;27;40962;-73
2023/08/20 00:47:05;;;;;;;4.33;3.60;;;;;;;25.72;67.38;99138.53;5112711;27;41710;-73
2023/08/20 00:49:33;;;;;;;4.90;3.97;;;;;;;25.69;67.58;99136.19;5131073;27;43708;-72
2023/08/20 00:52:01;;;;;;;4.17;3.77;;;;;;;25.64;67.92;99139.47;5095326;27;41509;-72
2023/08/20 00:54:29;;;;;;;3.93;3.53;;;;;;;25.62;68.14;99132.53;5113520;27;39671;-72
2023/08/20 00:57:00;;;;;;;4.03;3.67;;;;;;;25.59;67.92;99136.41;5131963;27;41817;-72
2023/08/20 00:59:28;;;;;;;3.53;3.23;;;;;;;25.58;68.84;99136.63;5113925;27;43644;-72
2023/08/20 01:01:55;;;;;;;4.50;4.03;;;;;;;25.55;68.64;99137.84;5113359;27;42374;-72
2023/08/20 01:04:23;;;;;;;4.03;3.73;;;;;;;25.53;68.43;99142.59;5113385;27;38859;-72
2023/08/20 01:06:58;;;;;;;3.53;3.23;;;;;;;25.53;68.59;99147.16;5113380;27;42717;-72
2023/08/20 01:09:38;;;;;;;3.70;3.10;;;;;;;25.51;68.55;99141.09;5128659;27;43494;-72
2023/08/20 01:12:09;;;;;;;3.53;3.23;;;;;;;25.42;68.39;99130.31;5112373;27;42205;-72
2023/08/20 01:14:37;;;;;;;3.30;3.00;;;;;;;25.42;68.74;99138.47;5115161;27;40681;-72
2023/08/20 01:17:04;;;;;;;4.20;3.80;;;;;;;25.44;68.74;99143.72;5116871;27;42223;-72
2023/08/20 01:19:32;;;;;;;6.13;3.53;;;;;;;25.41;68.75;99134.06;5117057;27;42731;-72
2023/08/20 01:22:16;;;;;;;3.67;3.37;;;;;;;25.40;68.80;99142.38;5116128;27;42210;-72
2023/08/20 01:25:00;;;;;;;3.33;3.07;;;;;;;25.38;68.55;99147.97;5112723;27;40857;-72
2023/08/20 01:27:45;;;;;;;3.63;3.33;;;;;;;25.36;68.75;99144.59;5133479;27;42767;-72
2023/08/20 01:30:15;;;;;;;4.40;4.00;;;;;;;25.35;68.87;99145.63;5115925;27;42315;-72
2023/08/20 01:32:43;;;;;;;4.03;3.23;;;;;;;25.34;68.75;99146.69;5134033;27;43361;-72
2023/08/20 01:35:14;;;;;;;3.57;3.20;;;;;;;25.33;68.75;99141.44;5115970;27;39968;-72
2023/08/20 01:37:41;;;;;;;3.73;3.43;;;;;;;25.32;68.97;99151.44;5115266;27;41899;-72
2023/08/20 01:40:11;;;;;;;3.70;3.40;;;;;;;25.30;68.76;99148.06;5115548;27;43814;-72
2023/08/20 01:42:39;;;;;;;3.63;2.90;;;;;;;25.29;68.65;99148.25;5098205;27;41131;-72
2023/08/20 01:45:08;;;;;;;3.20;2.90;;;;;;;25.25;68.98;99145.03;5133930;27;40841;-72
2023/08/20 01:47:37;;;;;;;3.60;3.30;;;;;;;25.25;69.12;99150.47;5133728;27;42469;-72
2023/08/20 01:50:06;;;;;;;3.57;3.27;;;;;;;25.16;69.44;99131.75;5115337;27;43717;-72
2023/08/20 01:52:33;;;;;;;3.40;3.10;;;;;;;25.20;69.29;99143.91;5115233;27;42375;-72
2023/08/20 01:55:01;;;;;;;3.70;3.40;;;;;;;25.18;69.10;99149.53;5099663;27;38861;-72
2023/08/20 01:57:28;;;;;;;3.90;3.40;;;;;;;25.16;69.43;99151.56;5098945;27;40569;-72
2023/08/20 01:59:57;;;;;;;3.33;3.03;;;;;;;25.16;69.35;99154.28;5099222;27;42794;-72
2023/08/20 02:02:25;;;;;;;3.60;3.30;;;;;;;25.13;69.26;99153.78;5115774;27;43180;-72
2023/08/20 02:04:54;;;;;;;3.67;2.83;;;;;;;25.11;69.56;99153.97;5115339;27;40178;-72
2023/08/20 02:07:21;;;;;;;3.73;3.43;;;;;;;25.05;69.45;99149.28;5133335;27;42690;-72
2023/08/20 02:09:49;;;;;;;3.80;3.47;;;;;;;25.07;70.21;99155.38;5133546;27;43527;-72
2023/08/20 02:12:16;;;;;;;3.87;3.47;;;;;;;25.04;69.80;99153.00;5134282;27;42255;-72
2023/08/20 02:14:44;;;;;;;3.60;3.30;;;;;;;25.02;69.97;99144.22;5099172;27;38255;-72
2023/08/20 02:17:13;;;;;;;3.73;3.43;;;;;;;25.00;70.21;99152.53;5115719;27;40342;-72
2023/08/20 02:19:41;;;;;;;4.07;3.30;;;;;;;24.97;69.89;99152.06;5115760;27;42217;-73
2023/08/20 02:22:10;;;;;;;3.73;3.23;;;;;;;24.94;70.25;99153.25;5115366;27;43207;-72
2023/08/20 02:24:37;;;;;;;3.30;2.90;;;;;;;24.91;70.07;99150.88;5113523;27;40294;-72
2023/08/20 02:27:05;;;;;;;3.77;3.43;;;;;;;24.89;70.14;99154.78;5114704;27;42440;-72
2023/08/20 02:29:32;;;;;;;3.93;3.63;;;;;;;24.86;70.16;99150.56;5114856;27;42816;-72
2023/08/20 02:32:00;;;;;;;3.97;3.57;;;;;;;24.83;70.65;99150.09;5133097;27;42209;-72
2023/08/20 02:34:27;;;;;;;4.73;3.53;;;;;;;24.78;70.69;99147.06;5114871;27;40749;-72
2023/08/20 02:36:55;;;;;;;4.77;3.00;;;;;;;24.63;70.80;99128.88;5114509;27;41775;-72
2023/08/20 02:39:24;;;;;;;4.17;3.77;;;;;;;24.69;70.99;99154.41;5114244;27;42843;-72
2023/08/20 02:41:52;;;;;;;3.83;3.53;;;;;;;24.64;71.17;99145.97;5132909;27;42461;-72
2023/08/20 02:44:20;;;;;;;3.97;3.67;;;;;;;24.59;71.48;99153.81;5097562;27;38832;-71
2023/08/20 02:46:48;;;;;;;4.13;3.73;;;;;;;24.55;71.11;99150.59;5097275;27;42168;-72
2023/08/20 02:49:15;;;;;;;4.27;3.87;;;;;;;24.45;71.55;99147.28;5114445;27;43747;-73
2023/08/20 02:51:44;;;;;;;3.60;3.30;;;;;;;24.36;71.81;99136.66;5114072;27;41121;-73
2023/08/20 02:54:12;;;;;;;3.93;3.43;;;;;;;24.44;71.63;99150.16;5115049;27;39940;-72
2023/08/20 02:56:41;;;;;;;3.80;3.33;;;;;;;24.39;71.54;99145.25;5115189;27;41750;-73
2023/08/20 02:59:08;;;;;;;4.07;3.67;;;;;;;24.36;71.95;99148.31;5115383;27;42825;-73
2023/08/20 03:01:36;;;;;;;3.53;3.23;;;;;;;24.33;71.89;99148.69;5115257;27;42643;-72
2023/08/20 03:04:04;;;;;;;3.73;3.43;;;;;;;24.30;72.01;99149.03;5114780;27;40453;-72
2023/08/20 03:06:32;;;;;;;3.90;3.50;;;;;;;24.27;72.02;99152.06;5113557;27;42425;-72
2023/08/20 03:08:59;;;;;;;6.17;3.50;;;;;;;24.19;72.41;99135.84;5096979;27;41793;-72
2023/08/20 03:11:27;;;;;;;3.53;3.23;;;;;;;24.22;71.97;99146.34;5114114;27;43143;-72
2023/08/20 03:13:56;;;;;;;3.73;3.17;;;;;;;24.18;72.19;99151.25;5114349;27;40952;-72
2023/08/20 03:16:23;;;;;;;3.80;3.50;;;;;;;24.16;72.45;99141.59;5113808;27;42486;-72
2023/08/20 03:18:51;;;;;;;3.63;3.33;;;;;;;24.13;72.36;99141.94;5114087;27;43763;-72
2023/08/20 03:21:18;;;;;;;3.60;3.30;;;;;;;24.10;72.35;99147.75;5096920;27;41557;-72
2023/08/20 03:23:46;;;;;;;3.80;3.50;;;;;;;24.08;72.52;99149.78;5113549;27;40917;-72
2023/08/20 03:26:13;;;;;;;3.53;3.23;;;;;;;24.05;72.56;99150.97;5111593;27;42720;-72
2023/08/20 03:28:41;;;;;;;3.13;2.87;;;;;;;24.03;72.77;99152.16;5132445;27;42765;-73
2023/08/20 03:31:10;;;;;;;3.87;3.50;;;;;;;23.99;72.56;99157.91;5113755;27;42315;-73
2023/08/20 03:33:41;;;;;;;3.77;3.47;;;;;;;23.96;72.75;99150.16;5097138;27;38929;-72
2023/08/20 03:36:09;;;;;;;4.07;3.67;;;;;;;23.91;72.74;99155.22;5113625;27;42655;-73
2023/08/20 03:38:36;;;;;;;3.60;3.30;;;;;;;23.90;73.04;99153.53;5113116;27;43788;-72
2023/08/20 03:41:06;;;;;;;3.77;3.47;;;;;;;23.81;73.06;99145.63;5096535;27;42246;-72
2023/08/20 03:43:33;;;;;;;3.43;3.07;;;;;;;23.85;72.79;99155.94;5096566;27;39656;-72
2023/08/20 03:46:02;;;;;;;3.53;3.17;;;;;;;23.81;73.38;99154.59;5113412;27;41895;-72
2023/08/20 03:48:31;;;;;;;3.93;3.47;;;;;;;23.79;73.27;99155.75;5113579;27;43763;-72
2023/08/20 03:50:58;;;;;;;4.00;3.70;;;;;;;23.76;73.24;99145.28;5096304;27;41324;-72
2023/08/20 03:53:26;;;;;;;4.60;3.87;;;;;;;23.73;73.63;99157.31;5113935;27;40096;-72
2023/08/20 03:55:53;;;;;;;3.83;3.53;;;;;;;23.70;73.77;99163.06;5114484;27;42511;-72
2023/08/20 03:58:21;;;;;;;4.87;3.93;;;;;;;23.68;74.02;99162.38;5097255;27;41740;-72
2023/08/20 04:00:48;;;;;;;3.70;3.40;;;;;;;23.66;74.13;99168.97;5097346;27;40830;-72
2023/08/20 04:03:19;;;;;;;3.40;3.10;;;;;;;23.62;73.96;99172.00;5097480;27;39218;-72
2023/08/20 04:05:48;;;;;;;3.60;3.30;;;;;;;23.59;74.36;99169.66;5114028;27;40580;-72
2023/08/20 04:08:16;;;;;;;4.07;3.70;;;;;;;23.58;74.41;99169.84;5132490;27;42804;-72
2023/08/20 04:10:44;;;;;;;4.13;3.73;;;;;;;23.57;74.39;99178.97;5114322;27;43200;-72
2023/08/20 04:13:13;;;;;;;3.50;3.20;;;;;;;23.56;74.81;99177.28;5114100;27;39746;-72
2023/08/20 04:15:42;;;;;;;3.37;3.07;;;;;;;23.44;74.97;99168.63;5113545;27;41798;-72
2023/08/20 04:18:09;;;;;;;4.43;3.40;;;;;;;23.53;74.90;99185.72;5112105;27;43001;-72
2023/08/20 04:20:37;;;;;;;3.70;3.40;;;;;;;23.48;75.12;99174.56;5112650;27;42146;-73
2023/08/20 04:23:06;;;;;;;4.60;3.23;;;;;;;23.52;75.10;99179.47;5112780;27;40977;-72
2023/08/20 04:25:35;;;;;;;3.30;3.10;;;;;;;23.51;75.07;99179.63;5112302;27;42463;-72
2023/08/20 04:28:03;;;;;;;3.43;3.17;;;;;;;23.51;75.36;99169.66;5112573;27;42758;-72
2023/08/20 04:30:31;;;;;;;3.17;2.87;;;;;;;23.51;75.10;99172.38;5095756;27;42305;-72
2023/08/20 04:33:00;;;;;;;5.30;3.00;;;;;;;23.50;75.27;99167.97;5112552;27;39869;-72
2023/08/20 04:35:28;;;;;;;3.50;3.20;;;;;;;23.51;75.27;99174.22;5095535;27;42228;-72
2023/08/20 04:37:56;;;;;;;3.40;3.10;;;;;;;23.50;75.32;99175.19;5094894;27;41588;-72
2023/08/20 04:40:25;;;;;;;3.23;2.97;;;;;;;23.48;75.43;99175.41;5095455;27;41414;-72
2023/08/20 04:42:53;;;;;;;5.70;4.27;;;;;;;23.52;75.36;99175.91;5112534;27;40270;-72
2023/08/20 04:45:21;;;;;;;3.87;3.43;;;;;;;23.51;75.16;99175.06;5112571;27;42819;-72
2023/08/20 04:47:49;;;;;;;3.83;3.47;;;;;;;23.54;75.13;99173.88;5095236;27;43295;-72
2023/08/20 04:50:17;;;;;;;3.53;3.30;;;;;;;23.56;75.59;99183.53;5097716;27;42181;-72
2023/08/20 04:52:44;;;;;;;3.50;3.20;;;;;;;23.58;75.63;99177.94;5115876;27;40035;-72
2023/08/20 04:55:12;;;;;;;3.43;3.13;;;;;;;23.61;75.48;99183.03;5135572;27;42501;-73
2023/08/20 04:57:41;;;;;;;4.07;3.57;;;;;;;23.64;75.19;99174.53;5116697;27;42938;-72
2023/08/20 05:00:10;;;;;;;3.93;3.63;;;;;;;23.68;76.05;99175.91;5099588;27;42253;-72
2023/08/20 05:02:51;;;;;;;4.30;3.90;;;;;;;23.76;75.77;99173.19;5135089;27;40030;-72
2023/08/20 05:05:20;;;;;;;3.57;3.27;;;;;;;23.80;75.93;99177.22;5116735;27;42013;-72
2023/08/20 05:07:47;;;;;;;4.40;3.53;;;;;;;23.88;75.74;99179.91;5116473;27;43806;-72
2023/08/20 05:10:15;;;;;;;3.47;3.20;;;;;;;23.96;75.78;99187.19;5116761;27;43274;-72
2023/08/20 05:12:44;;;;;;;3.60;3.30;;;;;;;24.05;75.34;99182.59;5116777;27;40051;-72
2023/08/20 05:15:12;;;;;;;3.47;3.17;;;;;;;24.11;75.15;99182.72;5116730;27;41535;-72
2023/08/20 05:17:40;;;;;;;3.67;3.37;;;;;;;24.18;74.91;99188.28;5099048;27;41860;-72
2023/08/20 05:20:10;;;;;;;4.13;3.70;;;;;;;24.19;74.76;99179.16;5116407;27;43138;-72
2023/08/20 05:22:37;;;;;;;4.90;3.97;;;;;;;24.34;74.87;99196.41;5115354;27;41009;-72
2023/08/20 05:25:06;;;;;;;4.33;3.77;;;;;;;24.40;74.96;99203.81;5114587;27;41533;-72
2023/08/20 05:27:33;;;;;;;4.03;3.60;;;;;;;24.50;75.10;99193.59;5115249;27;43812;-72
2023/08/20 05:30:03;;;;;;;4.97;3.83;;;;;;;24.58;75.13;99200.84;5115376;27;42856;-72
2023/08/20 05:32:31;;;;;;;4.70;4.30;;;;;;;24.67;75.17;99197.94;5115111;27;40607;-72
2023/08/20 05:34:59;;;;;;;4.70;4.30;;;;;;;24.75;74.98;99180.78;5098052;27;41982;-73
2023/08/20 05:37:26;;;;;;;7.27;5.40;;;;;;;24.97;75.41;99179.16;5097818;27;42909;-72
2023/08/20 05:39:54;;;;;;;5.23;4.50;;;;;;;24.96;75.16;99172.91;5097812;27;41134;-72
2023/08/20 05:42:21;;;;;;;4.90;4.13;;;;;;;25.02;74.74;99171.31;5115077;27;39848;-76
2023/08/20 05:44:55;;;;;;;4.27;3.90;;;;;;;25.26;74.45;99200.09;5096429;27;42798;-76
2023/08/20 05:47:29;;;;;;;5.70;4.30;;;;;;;25.44;74.03;99205.22;5098062;27;42011;-76
2023/08/20 05:49:56;;;;;;;4.63;4.23;;;;;;;25.67;73.47;99211.50;5115335;27;43232;-77
2023/08/20 05:52:24;;;;;;;5.17;4.03;;;;;;;25.93;72.71;99220.06;5115309;27;39676;-78
2023/08/20 05:54:51;;;;;;;4.17;3.87;;;;;;;26.24;71.67;99227.19;5116526;27;41634;-76
2023/08/20 05:57:19;;;;;;;5.70;4.20;;;;;;;26.48;70.96;99230.50;5116211;27;43239;-78
2023/08/20 05:59:47;;;;;;;3.93;3.60;;;;;;;26.54;70.51;99228.91;5116296;27;43289;-77
2023/08/20 06:02:18;;;;;;;4.43;4.10;;;;;;;26.62;70.50;99236.09;5116253;27;40250;-75
2023/08/20 06:04:47;;;;;;;4.77;3.97;;;;;;;26.63;70.74;99245.94;5098565;27;41955;-76
2023/08/20 06:07:14;;;;;;;4.07;3.77;;;;;;;26.61;70.59;99240.69;5082106;27;42725;-77
2023/08/20 06:09:42;;;;;;;4.90;4.50;;;;;;;26.68;70.41;99252.50;5116125;27;41436;-77
2023/08/20 06:12:10;;;;;;;4.70;4.30;;;;;;;26.79;70.66;99246.59;5115662;27;38899;-77
2023/08/20 06:14:37;;;;;;;4.33;3.93;;;;;;;26.88;70.15;99241.03;5115957;27;40855;-76
2023/08/20 06:17:05;;;;;;;3.67;3.37;;;;;;;26.95;69.99;99242.00;5114883;27;42412;-77
2023/08/20 06:19:32;;;;;;;4.17;3.53;;;;;;;27.04;69.70;99246.28;5114442;27;42402;-75
2023/08/20 06:22:01;;;;;;;5.33;4.60;;;;;;;27.10;69.08;99250.94;5097722;27;40479;-78
2023/08/20 06:24:30;;;;;;;4.70;3.67;;;;;;;27.14;69.01;99244.09;5097415;27;41768;-77
2023/08/20 06:26:58;;;;;;;4.27;3.60;;;;;;;27.31;68.48;99250.97;5114662;27;42785;-77
2023/08/20 06:29:25;;;;;;;4.13;3.73;;;;;;;27.51;68.01;99249.28;5097731;27;41254;-77
2023/08/20 06:31:53;;;;;;;4.40;3.83;;;;;;;27.85;66.78;99261.34;5114757;27;39477;-76
2023/08/20 06:34:20;;;;;;;3.47;3.17;;;;;;;28.26;64.88;99263.38;5114940;27;41740;-76
2023/08/20 06:36:48;;;;;;;4.43;4.03;;;;;;;28.42;63.56;99268.50;5132776;27;42753;-78
2023/08/20 06:39:19;;;;;;;4.00;3.70;;;;;;;28.33;62.83;99232.38;5114297;27;42137;-75
2023/08/20 06:41:47;;;;;;;3.63;3.33;;;;;;;28.54;62.69;99245.09;5113148;27;40079;-76
2023/08/20 06:44:21;;;;;;;3.83;3.40;;;;;;;28.72;62.08;99266.34;5097848;27;40743;-76
2023/08/20 06:46:49;;;;;;;3.67;3.37;;;;;;;28.77;62.16;99270.16;5114156;27;42443;-77
2023/08/20 06:49:16;;;;;;;4.50;4.20;;;;;;;28.77;61.19;99261.97;5114022;27;42232;-77
2023/08/20 06:51:44;;;;;;;4.53;3.53;;;;;;;28.88;61.69;99280.53;5114068;27;38909;-76
2023/08/20 06:54:11;;;;;;;3.77;3.40;;;;;;;28.99;61.26;99270.91;5133367;27;42870;-77
2023/08/20 06:56:40;;;;;;;4.00;3.63;;;;;;;29.19;61.57;99276.41;5115395;27;43323;-76
2023/08/20 06:59:08;;;;;;;4.47;4.07;;;;;;;29.38;60.01;99286.59;5133672;27;41969;-76
2023/08/20 07:01:36;;;;;;;4.10;3.60;;;;;;;29.64;59.58;99285.81;5114499;27;40961;-76
2023/08/20 07:04:04;;;;;;;4.00;3.63;;;;;;;29.95;58.79;99282.47;5097371;27;41546;-77
2023/08/20 07:06:35;;;;;;;4.23;3.83;;;;;;;30.05;58.17;99285.63;5097506;27;43060;-77
2023/08/20 07:09:03;;;;;;;4.97;3.17;;;;;;;29.79;56.65;99280.16;5097534;27;41014;-77
2023/08/20 07:11:31;;;;;;;3.63;3.37;;;;;;;29.50;57.15;99284.94;5096680;27;39871;-78
2023/08/20 07:14:00;;;;;;;3.20;3.00;;;;;;;29.38;59.07;99292.06;5114736;27;40946;-77
2023/08/20 07:16:28;;;;;;;3.97;3.53;;;;;;;29.32;59.41;99290.09;5114617;27;42951;-76
2023/08/20 07:18:55;;;;;;;5.00;3.90;;;;;;;29.50;59.29;99290.41;5098213;27;42327;-76
2023/08/20 07:21:26;;;;;;;4.13;3.60;;;;;;;29.70;59.43;99292.31;5133360;27;39968;-76
2023/08/20 07:23:54;;;;;;;4.20;3.80;;;;;;;29.98;58.67;99293.84;5109538;27;41880;-76
2023/08/20 07:26:23;;;;;;;3.97;3.27;;;;;;;30.30;58.16;99297.59;5131701;27;42805;-76
2023/08/20 07:28:59;;;;;;;3.97;3.57;;;;;;;30.66;56.28;99312.72;5113806;27;42423;-78
2023/08/20 07:31:29;;;;;;;3.93;3.57;;;;;;;30.96;56.84;99316.63;5113787;27;39303;-77
2023/08/20 07:33:58;;;;;;;3.77;3.47;;;;;;;31.11;55.34;99315.56;5096429;27;42147;-78
2023/08/20 07:36:27;;;;;;;5.27;3.70;;;;;;;31.08;55.12;99323.09;5131796;27;43131;-78
2023/08/20 07:38:57;;;;;;;3.50;3.20;;;;;;;31.23;55.25;99324.75;5113328;27;43322;-77
2023/08/20 07:41:25;;;;;;;4.73;3.60;;;;;;;31.39;55.30;99295.00;5113315;27;39093;-77
2023/08/20 07:43:53;;;;;;;4.13;3.73;;;;;;;31.51;54.65;99311.56;5096757;27;40553;-76
2023/08/20 07:46:20;;;;;;;4.03;3.40;;;;;;;31.64;54.11;99317.00;5096067;27;41635;-76
2023/08/20 07:48:49;;;;;;;3.80;3.50;;;;;;;31.97;53.55;99329.59;5096689;27;41798;-78
2023/08/20 07:51:17;;;;;;;4.07;3.67;;;;;;;32.22;53.57;99327.75;5113606;27;40185;-77
2023/08/20 07:53:47;;;;;;;4.07;3.67;;;;;;;32.58;52.10;99335.22;5113831;27;40728;-77
2023/08/20 07:56:14;;;;;;;3.83;3.53;;;;;;;32.79;50.35;99344.94;5114000;27;43817;-77
2023/08/20 07:58:42;;;;;;;5.87;3.97;;;;;;;32.79;50.47;99337.53;5097189;27;42544;-77
2023/08/20 08:01:10;;;;;;;4.20;3.90;;;;;;;32.67;51.69;99325.63;5132748;27;40290;-78
2023/08/20 10:05:15;;;;;;;4.43;4.00;;;;;;;39.67;36.13;99395.16;5113715;27;38801;-77
2023/08/20 10:07:44;;;;;;;4.50;4.18;;;;;;;39.58;37.20;99385.69;5098878;27;40705;-77
2023/08/20 10:10:13;;;;;;;4.43;4.13;;;;;;;39.84;37.05;99390.19;5115775;27;41726;-78
2023/08/20 10:12:43;;;;;;;4.95;4.55;;;;;;;39.73;36.46;99394.88;5115445;27;42285;-78
2023/08/20 10:15:12;;;;;;;4.07;3.53;;;;;;;39.54;37.00;99377.09;5116025;27;40314;-77
2023/08/20 10:17:43;;;;;;;5.28;4.78;;;;;;;39.46;37.62;99378.44;5115156;27;43188;-77
2023/08/20 10:20:15;;;;;;;4.90;4.40;;;;;;;39.42;37.46;99380.09;5115785;27;41717;-77
2023/08/20 10:22:46;;;;;;;5.85;4.32;;;;;;;39.32;37.81;99365.34;5114021;27;42137;-78
2023/08/20 10:25:23;;;;;;;4.95;4.55;;;;;;;39.21;37.07;99374.69;5115097;27;41561;-77
2023/08/20 10:27:52;;;;;;;4.55;4.10;;;;;;;39.07;38.49;99357.75;5131671;27;41233;-77
2023/08/20 10:30:25;;;;;;;4.85;4.50;;;;;;;39.11;37.79;99369.94;5114463;27;43071;-78
2023/08/20 10:32:54;;;;;;;4.95;4.60;;;;;;;39.20;38.63;99373.84;5114786;27;42450;-77
2023/08/20 10:35:27;;;;;;;4.63;4.22;;;;;;;39.27;37.86;99382.78;5097495;27;39244;-78
2023/08/20 10:38:06;;;;;;;5.13;4.63;;;;;;;39.56;35.99;99360.19;5080128;27;42068;-77
2023/08/20 10:41:06;;;;;;;5.25;4.30;;;;;;;40.24;36.07;99392.22;5114616;27;42715;-77
2023/08/20 10:43:35;;;;;;;4.57;4.18;;;;;;;41.12;35.01;99400.25;5068815;28;42125;-77
2023/08/20 10:46:04;;;;;;;4.65;4.25;;;;;;;42.18;34.26;99396.97;5101578;27;39087;-77
2023/08/20 10:48:33;;;;;;;4.13;3.83;;;;;;;42.92;32.97;99394.97;5095809;27;43155;-77
2023/08/20 10:51:12;;;;;;;4.15;3.83;;;;;;;42.93;31.19;99405.84;5113909;27;42926;-77
2023/08/20 10:53:41;;;;;;;3.95;3.65;;;;;;;42.89;31.36;99390.84;5113851;27;41332;-77
2023/08/20 10:56:15;;;;;;;4.05;3.75;;;;;;;43.03;32.56;99390.94;5133440;27;39967;-77
2023/08/20 10:58:47;;;;;;;4.20;3.90;;;;;;;43.32;30.75;99402.09;5114418;27;41608;-77
2023/08/20 11:01:22;;;;;;;4.00;3.70;;;;;;;43.58;30.29;99397.88;5114644;27;43424;-77
2023/08/20 11:03:51;;;;;;;4.25;3.85;;;;;;;43.78;30.80;99404.28;5114215;27;42134;-77
2023/08/20 11:06:21;;;;;;;4.30;3.90;;;;;;;44.37;29.92;99398.97;5097770;27;38867;-77
2023/08/20 11:08:49;;;;;;;3.58;3.28;;;;;;;44.29;31.04;99384.81;5114053;27;41902;-77
2023/08/20 11:11:19;;;;;;;4.68;4.20;;;;;;;43.89;30.88;99366.75;5097681;27;42852;-77
2023/08/20 11:13:47;;;;;;;4.30;4.00;;;;;;;43.83;30.83;99376.31;5112630;27;42536;-77
2023/08/20 11:16:14;;;;;;;4.65;4.15;;;;;;;43.86;31.03;99392.47;5131842;27;40871;-78
2023/08/20 11:18:42;;;;;;;3.90;3.60;;;;;;;44.04;31.08;99383.28;5097050;27;41842;-78
2023/08/20 11:42:13;;;;;;;3.97;3.67;;;;;;;44.50;29.62;99386.19;5129097;27;43245;-78
2023/08/20 11:44:45;;;;;;;4.70;3.92;;;;;;;44.44;29.90;99376.22;5112954;27;38810;-78
2023/08/20 11:47:16;;;;;;;4.20;3.83;;;;;;;44.57;30.12;99371.81;5111064;27;41857;-77
2023/08/20 11:49:44;;;;;;;3.85;3.55;;;;;;;44.97;29.52;99378.63;5130132;27;42916;-77
2023/08/20 11:52:13;;;;;;;4.18;3.88;;;;;;;45.12;28.60;99383.09;5112942;27;42277;-76
2023/08/20 11:54:40;;;;;;;4.32;3.65;;;;;;;45.34;28.66;99391.63;5131926;27;40253;-77
2023/08/20 11:57:08;;;;;;;3.75;3.45;;;;;;;45.69;27.41;99390.88;5131123;27;40578;-77
2023/08/20 12:19:40;;;;;;;3.90;3.60;;;;;;;50.92;22.11;99393.34;5148439;27;42688;-78
2023/08/20 12:22:08;;;;;;;4.50;4.10;;;;;;;51.78;21.25;99397.00;5152213;27;40930;-78
2023/08/20 12:24:36;;;;;;;3.80;3.50;;;;;;;52.46;20.34;99397.03;5115573;27;41734;-79
2023/08/20 12:27:03;;;;;;;3.50;3.30;;;;;;;52.78;19.73;99401.59;5133235;27;42943;-77
2023/08/20 12:29:31;;;;;;;4.05;3.60;;;;;;;52.90;18.98;99397.91;5132878;27;42688;-77
2023/08/20 12:31:59;;;;;;;3.78;3.47;;;;;;;53.13;18.46;99401.72;5116104;27;39194;-79
2023/08/20 12:34:29;;;;;;;3.80;3.50;;;;;;;53.39;18.25;99393.50;5115808;27;41764;-78
2023/08/20 12:36:58;;;;;;;3.90;3.50;;;;;;;53.84;19.02;99386.44;5099267;27;43123;-77
2023/08/20 12:39:25;;;;;;;3.42;3.15;;;;;;;54.34;19.03;99376.19;5115316;27;40705;-78
2023/08/20 12:41:53;;;;;;;4.40;3.97;;;;;;;54.56;18.40;99366.09;5151662;27;40595;-78
2023/08/20 12:44:21;;;;;;;5.30;3.45;;;;;;;54.61;18.30;99360.13;5115810;27;42421;-78
2023/08/20 12:46:48;;;;;;;3.75;3.42;;;;;;;54.82;18.28;99360.53;5151568;27;42404;-79
2023/08/20 12:49:16;;;;;;;3.47;3.20;;;;;;;54.78;18.47;99343.41;5132543;27;42473;-77
2023/08/20 12:51:45;;;;;;;3.60;3.30;;;;;;;54.85;18.32;99354.09;5132824;27;39075;-76
2023/08/20 12:54:15;;;;;;;4.03;3.72;;;;;;;54.94;18.29;99362.34;5132845;27;41571;-76
2023/08/20 12:56:42;;;;;;;3.78;3.47;;;;;;;55.09;18.70;99361.38;5133430;27;43026;-76
2023/08/20 12:59:10;;;;;;;2.88;2.67;;;;;;;55.04;18.52;99354.00;5151946;27;42388;-77
2023/08/20 20:30:42;;;;;;;2.50;2.30;;;;;;;28.67;51.09;99280.59;5149391;27;43104;-74
2023/08/20 20:33:10;;;;;;;3.30;2.40;;;;;;;28.63;50.93;99287.50;5128979;27;42755;-73
2023/08/20 20:35:37;;;;;;;2.87;2.17;;;;;;;28.61;50.99;99278.66;5112426;27;42272;-73
2023/08/20 20:38:05;;;;;;;2.17;1.97;;;;;;;28.59;50.92;99280.75;5112150;27;39981;-74
2023/08/20 20:40:33;;;;;;;2.50;2.30;;;;;;;28.55;51.30;99282.22;5130763;27;41826;-73
2023/08/20 20:43:01;;;;;;;2.67;2.47;;;;;;;28.53;51.13;99276.13;5112317;27;42873;-74
2023/08/20 20:45:28;;;;;;;2.37;2.17;;;;;;;28.48;51.09;99289.50;5130559;27;43243;-73
2023/08/20 20:47:57;;;;;;;2.30;2.10;;;;;;;28.35;51.14;99271.16;5130867;27;40038;-73
2023/08/20 20:50:25;;;;;;;2.67;2.43;;;;;;;28.28;51.36;99266.72;5112157;27;42804;-73
2023/08/20 20:52:52;;;;;;;2.50;2.30;;;;;;;28.33;51.46;99286.88;5112657;27;43753;-73
2023/08/20 20:55:20;;;;;;;2.33;2.13;;;;;;;28.27;51.67;99287.69;5113032;27;42355;-74
2023/08/20 20:57:47;;;;;;;2.73;2.40;;;;;;;28.18;51.53;99289.72;5132225;27;39904;-73
2023/08/20 21:00:16;;;;;;;2.50;2.30;;;;;;;28.16;51.76;99285.47;5113053;27;42318;-73
2023/08/20 21:02:44;;;;;;;4.17;2.73;;;;;;;28.10;52.04;99292.53;5113005;27;41873;-73
2023/08/20 21:05:12;;;;;;;2.17;2.00;;;;;;;28.05;52.40;99300.47;5131396;27;43595;-73
2023/08/20 21:07:40;;;;;;;2.93;2.50;;;;;;;28.00;52.49;99297.50;5131457;27;40122;-74
2023/08/20 21:10:09;;;;;;;2.67;2.47;;;;;;;27.95;52.84;99294.50;5112963;27;42683;-74
2023/08/20 21:12:36;;;;;;;2.43;2.23;;;;;;;27.89;52.80;99292.59;5131418;27;42552;-73
2023/08/20 21:15:04;;;;;;;2.50;2.30;;;;;;;27.84;52.94;99295.88;5113005;27;42228;-74
2023/08/20 21:17:32;;;;;;;2.70;2.50;;;;;;;27.80;53.02;99293.78;5130137;27;40021;-73
2023/08/20 21:19:59;;;;;;;2.47;2.20;;;;;;;27.76;53.36;99297.91;5094667;27;41761;-75
2023/08/20 21:22:28;;;;;;;2.60;2.10;;;;;;;27.71;53.41;99305.81;5130210;27;42510;-74
2023/08/20 21:24:56;;;;;;;3.00;2.70;;;;;;;27.68;53.15;99308.94;5130168;27;43214;-74
2023/08/20 21:27:23;;;;;;;2.70;2.50;;;;;;;27.64;53.42;99308.47;5110825;27;38969;-72
2023/08/20 21:29:52;;;;;;;2.60;2.40;;;;;;;27.59;53.72;99315.53;5111590;27;41877;-73
2023/08/20 21:32:19;;;;;;;2.63;2.43;;;;;;;27.50;53.79;99312.91;5112887;27;42792;-73
2023/08/20 21:34:48;;;;;;;2.63;2.23;;;;;;;27.48;53.71;99320.41;5134178;27;42312;-73
2023/08/20 21:37:16;;;;;;;2.40;2.20;;;;;;;27.42;53.76;99315.75;5132801;27;40890;-73
2023/08/20 21:39:45;;;;;;;2.33;2.13;;;;;;;27.39;54.03;99321.56;5133795;27;41709;-73
2023/08/20 21:42:12;;;;;;;2.43;2.23;;;;;;;27.29;54.30;99303.88;5115539;27;42685;-72
2023/08/20 21:44:40;;;;;;;2.67;2.23;;;;;;;27.31;54.49;99318.13;5134012;27;42332;-72
2023/08/20 21:47:22;;;;;;;2.50;2.30;;;;;;;27.26;55.07;99315.97;5134040;27;40109;-72
2023/08/20 21:49:49;;;;;;;2.80;2.40;;;;;;;27.23;54.79;99326.38;5115608;27;41128;-73
2023/08/20 21:52:18;;;;;;;2.83;2.53;;;;;;;27.19;54.82;99317.78;5133596;27;42740;-72
2023/08/20 21:54:47;;;;;;;2.50;2.30;;;;;;;27.17;54.76;99325.28;5134874;27;42066;-72